Time;durP1;ratioP1;P1;durP2;ratioP2;P2;SDS_P1;SDS_P2;PMS_P1;PMS_P2;Temp;Humidity;BMP_temperature;BMP_pressure;BME280_temperature;BME280_humidity;BME280_pressure;Samples;Min_cycle;Max_cycle;Signal;HPM_P1;HPM_P2
2024/03/18 00:01:40;;;;;;;1.30;0.60;;;;;;;;;;5032020;28;58367;-77
2024/03/18 00:04:05;;;;;;;0.75;0.50;;;;;;;;;;5032301;28;58379;-80
2024/03/18 00:06:30;;;;;;;1.23;0.47;;;;;;;;;;5031997;28;58528;-79
2024/03/18 00:08:56;;;;;;;1.17;0.53;;;;;;;;;;5030940;28;58493;-79
2024/03/18 00:11:21;;;;;;;0.60;0.60;;;;;;;;;;5030175;28;58442;-79
2024/03/18 00:13:46;;;;;;;0.97;0.60;;;;;;;;;;5031642;28;58528;-78
2024/03/18 00:16:11;;;;;;;0.70;0.50;;;;;;;;;;5032263;28;59454;-77
2024/03/18 00:18:36;;;;;;;0.70;0.70;;;;;;;;;;5029473;28;58924;-77
2024/03/18 00:21:01;;;;;;;1.77;0.40;;;;;;;;;;5032965;28;58380;-77
2024/03/18 00:23:27;;;;;;;0.70;0.60;;;;;;;;;;5031898;28;58754;-77
2024/03/18 00:25:52;;;;;;;1.67;1.00;;;;;;;;;;5029939;28;58350;-76
2024/03/18 00:28:18;;;;;;;1.03;0.60;;;;;;;;;;5029995;28;59383;-77
2024/03/18 00:30:43;;;;;;;0.38;0.38;;;;;;;;;;5026111;28;59845;-77
2024/03/18 00:33:09;;;;;;;2.10;1.27;;;;;;;;;;5028339;28;59389;-77
2024/03/18 00:35:34;;;;;;;1.40;0.63;;;;;;;;;;5028740;28;59399;-74
2024/03/18 00:37:59;;;;;;;0.47;0.40;;;;;;;;;;5027636;28;58449;-77
2024/03/18 00:40:24;;;;;;;1.20;0.87;;;;;;;;;;5029661;28;58428;-77
2024/03/18 00:42:49;;;;;;;1.00;0.73;;;;;;;;;;5032033;28;59263;-77
2024/03/18 00:45:14;;;;;;;1.17;0.65;;;;;;;;;;5028068;28;58299;-77
2024/03/18 00:47:40;;;;;;;0.43;0.43;;;;;;;;;;5026806;28;59453;-77
2024/03/18 00:50:05;;;;;;;0.80;0.80;;;;;;;;;;5027261;28;58782;-77
2024/03/18 00:52:31;;;;;;;1.08;0.60;;;;;;;;;;5025413;28;58389;-78
2024/03/18 00:54:56;;;;;;;1.33;0.98;;;;;;;;;;5024813;28;59536;-77
2024/03/18 00:57:22;;;;;;;1.20;0.70;;;;;;;;;;5024516;28;59014;-77
2024/03/18 00:59:47;;;;;;;0.82;0.32;;;;;;;;;;5023782;28;58343;-76
2024/03/18 01:02:12;;;;;;;0.40;0.40;;;;;;;;;;5024930;28;59739;-77
2024/03/18 01:04:37;;;;;;;0.70;0.60;;;;;;;;;;5024142;28;58305;-76
2024/03/18 01:07:03;;;;;;;0.60;0.60;;;;;;;;;;5025619;28;59136;-77
2024/03/18 01:09:28;;;;;;;0.93;0.90;;;;;;;;;;5023761;28;58909;-76
2024/03/18 01:11:54;;;;;;;1.53;0.60;;;;;;;;;;5023197;28;58396;-76
2024/03/18 01:14:19;;;;;;;0.43;0.32;;;;;;;;;;5028210;28;60314;-76
2024/03/18 01:16:44;;;;;;;0.83;0.50;;;;;;;;;;5026860;28;59886;-77
2024/03/18 01:19:10;;;;;;;0.50;0.40;;;;;;;;;;5024578;28;58624;-77
2024/03/18 01:21:35;;;;;;;1.30;0.60;;;;;;;;;;5031023;28;58544;-77
2024/03/18 01:24:00;;;;;;;0.50;0.50;;;;;;;;;;5030449;28;58908;-76
2024/03/18 01:26:27;;;;;;;0.30;0.30;;;;;;;;;;5028678;28;58273;-77
2024/03/18 01:28:52;;;;;;;0.65;0.52;;;;;;;;;;5024095;28;60148;-77
2024/03/18 01:31:18;;;;;;;0.80;0.75;;;;;;;;;;5028901;28;58398;-76
2024/03/18 01:33:43;;;;;;;0.30;0.30;;;;;;;;;;5025551;28;59363;-75
2024/03/18 01:36:08;;;;;;;1.75;0.70;;;;;;;;;;5027123;28;59180;-75
2024/03/18 01:38:34;;;;;;;0.77;0.50;;;;;;;;;;5026107;28;60518;-77
2024/03/18 01:40:59;;;;;;;0.80;0.40;;;;;;;;;;5027854;28;58481;-75
2024/03/18 01:43:24;;;;;;;0.37;0.37;;;;;;;;;;5026604;28;58768;-77
2024/03/18 01:45:49;;;;;;;0.90;0.57;;;;;;;;;;5028472;28;58587;-78
2024/03/18 01:48:15;;;;;;;1.02;0.40;;;;;;;;;;5026437;28;59861;-78
2024/03/18 01:50:41;;;;;;;0.60;0.60;;;;;;;;;;5025407;28;58394;-78
2024/03/18 01:53:07;;;;;;;0.40;0.28;;;;;;;;;;5026391;28;59740;-78
2024/03/18 01:55:32;;;;;;;0.63;0.55;;;;;;;;;;5027105;28;58834;-78
2024/03/18 01:57:58;;;;;;;1.27;0.50;;;;;;;;;;5024251;28;58545;-78
2024/03/18 02:00:24;;;;;;;0.47;0.47;;;;;;;;;;5027030;28;59537;-78
2024/03/18 02:02:50;;;;;;;0.98;0.98;;;;;;;;;;5025757;28;58755;-78
2024/03/18 02:05:15;;;;;;;0.30;0.30;;;;;;;;;;5027614;28;58334;-78
2024/03/18 02:07:41;;;;;;;0.40;0.40;;;;;;;;;;5026540;28;59293;-78
2024/03/18 02:10:09;;;;;;;0.77;0.60;;;;;;;;;;5028064;28;58786;-78
2024/03/18 02:12:34;;;;;;;;;;;;;;;;;;5027226;28;60486;-78
2024/03/18 02:14:59;;;;;;;0.30;0.30;;;;;;;;;;5026697;28;58864;-78
2024/03/18 02:17:24;;;;;;;0.97;0.77;;;;;;;;;;5023748;28;58508;-78
2024/03/18 02:19:49;;;;;;;1.13;0.63;;;;;;;;;;5026831;28;59267;-78
2024/03/18 02:22:15;;;;;;;0.30;0.30;;;;;;;;;;5041226;28;60915;-78
2024/03/18 02:24:40;;;;;;;0.30;0.30;;;;;;;;;;5026359;28;58232;-78
2024/03/18 02:27:06;;;;;;;0.75;0.75;;;;;;;;;;5026816;28;58802;-78
2024/03/18 02:29:31;;;;;;;0.50;0.40;;;;;;;;;;5026677;28;59924;-78
2024/03/18 02:31:56;;;;;;;0.50;0.30;;;;;;;;;;5024658;28;60509;-78
2024/03/18 02:34:21;;;;;;;0.47;0.30;;;;;;;;;;5025956;28;58136;-78
2024/03/18 02:36:47;;;;;;;0.30;0.30;;;;;;;;;;5026695;28;58287;-78
2024/03/18 02:39:12;;;;;;;0.35;0.32;;;;;;;;;;5027102;28;59508;-78
2024/03/18 02:41:37;;;;;;;0.55;0.30;;;;;;;;;;5025746;28;58418;-78
2024/03/18 02:44:02;;;;;;;0.70;0.60;;;;;;;;;;5026111;28;58236;-77
2024/03/18 02:46:28;;;;;;;0.40;0.40;;;;;;;;;;5025786;28;59271;-76
2024/03/18 02:48:53;;;;;;;0.70;0.57;;;;;;;;;;5025964;28;58605;-77
2024/03/18 02:51:18;;;;;;;0.40;0.40;;;;;;;;;;5039349;28;58388;-77
2024/03/18 02:53:43;;;;;;;0.52;0.52;;;;;;;;;;5024923;28;59292;-77
2024/03/18 02:56:09;;;;;;;0.82;0.35;;;;;;;;;;5026138;28;58000;-77
2024/03/18 02:58:34;;;;;;;0.38;0.38;;;;;;;;;;5026175;28;60370;-77
2024/03/18 03:01:00;;;;;;;0.40;0.40;;;;;;;;;;5025647;28;59313;-77
2024/03/18 03:03:25;;;;;;;0.47;0.30;;;;;;;;;;5026775;28;58307;-77
2024/03/18 03:05:50;;;;;;;0.80;0.33;;;;;;;;;;5026158;28;59636;-78
2024/03/18 03:08:17;;;;;;;0.57;0.40;;;;;;;;;;5025561;28;58423;-77
2024/03/18 03:10:42;;;;;;;0.68;0.45;;;;;;;;;;5025514;28;58356;-77
2024/03/18 03:13:07;;;;;;;0.57;0.40;;;;;;;;;;5027147;28;59338;-77
2024/03/18 03:15:35;;;;;;;0.33;0.30;;;;;;;;;;5025568;28;58463;-77
2024/03/18 03:18:01;;;;;;;;;;;;;;;;;;5027066;28;59464;-78
2024/03/18 03:20:30;;;;;;;1.83;0.60;;;;;;;;;;5026831;28;58931;-77
2024/03/18 03:22:56;;;;;;;0.95;0.43;;;;;;;;;;5027239;28;58415;-77
2024/03/18 03:25:21;;;;;;;0.30;0.30;;;;;;;;;;5024963;28;59495;-78
2024/03/18 03:27:46;;;;;;;0.45;0.30;;;;;;;;;;5025671;28;58944;-77
2024/03/18 03:30:11;;;;;;;0.65;0.63;;;;;;;;;;5026029;28;58396;-78
2024/03/18 03:32:37;;;;;;;0.73;0.50;;;;;;;;;;5026118;28;59738;-77
2024/03/18 03:35:02;;;;;;;0.33;0.30;;;;;;;;;;5025687;28;58722;-77
2024/03/18 03:37:28;;;;;;;0.50;0.40;;;;;;;;;;5025693;28;59475;-77
2024/03/18 03:39:53;;;;;;;0.63;0.43;;;;;;;;;;5024825;28;59062;-77
2024/03/18 03:42:18;;;;;;;0.40;0.40;;;;;;;;;;5026002;28;58404;-78
2024/03/18 03:44:44;;;;;;;0.40;0.40;;;;;;;;;;5039409;28;59730;-77
2024/03/18 03:47:09;;;;;;;0.30;0.30;;;;;;;;;;5025127;28;59917;-77
2024/03/18 03:49:34;;;;;;;0.32;0.28;;;;;;;;;;5026326;28;58446;-77
2024/03/18 03:51:59;;;;;;;0.95;0.45;;;;;;;;;;5024633;28;58355;-78
2024/03/18 03:54:25;;;;;;;0.40;0.40;;;;;;;;;;5024746;28;58623;-76
2024/03/18 03:56:50;;;;;;;0.30;0.30;;;;;;;;;;5026079;28;58347;-76
2024/03/18 03:59:15;;;;;;;0.88;0.50;;;;;;;;;;5024675;28;58878;-76
2024/03/18 04:01:40;;;;;;;0.67;0.40;;;;;;;;;;5024564;28;58419;-76
2024/03/18 04:04:06;;;;;;;0.43;0.30;;;;;;;;;;5026358;28;58669;-76
2024/03/18 04:06:31;;;;;;;0.20;0.20;;;;;;;;;;5024015;28;59033;-76
2024/03/18 04:08:56;;;;;;;0.30;0.30;;;;;;;;;;5024409;28;58814;-77
2024/03/18 04:11:21;;;;;;;0.45;0.20;;;;;;;;;;5026088;28;59583;-77
2024/03/18 04:13:46;;;;;;;0.40;0.30;;;;;;;;;;5024120;28;59678;-77
2024/03/18 04:16:14;;;;;;;0.82;0.30;;;;;;;;;;5026572;28;58522;-77
2024/03/18 04:18:39;;;;;;;0.40;0.40;;;;;;;;;;5024440;28;60633;-77
2024/03/18 04:21:04;;;;;;;0.95;0.43;;;;;;;;;;5028101;27;58477;-77
2024/03/18 04:23:32;;;;;;;0.40;0.40;;;;;;;;;;5025088;28;59572;-77
2024/03/18 04:25:57;;;;;;;1.25;0.40;;;;;;;;;;5027149;28;59056;-77
2024/03/18 04:28:22;;;;;;;0.37;0.37;;;;;;;;;;5028508;28;58448;-77
2024/03/18 04:30:48;;;;;;;0.40;0.40;;;;;;;;;;5028165;28;60660;-77
2024/03/18 04:33:13;;;;;;;0.50;0.50;;;;;;;;;;5028452;28;59138;-77
2024/03/18 04:35:38;;;;;;;0.60;0.60;;;;;;;;;;5027545;28;58437;-77
2024/03/18 04:38:03;;;;;;;0.73;0.40;;;;;;;;;;5028131;28;60367;-77
2024/03/18 04:40:28;;;;;;;0.33;0.30;;;;;;;;;;5028655;28;58851;-77
2024/03/18 04:42:55;;;;;;;1.10;0.30;;;;;;;;;;5028377;28;60271;-77
2024/03/18 04:45:22;;;;;;;0.77;0.77;;;;;;;;;;5027609;28;59381;-77
2024/03/18 04:47:49;;;;;;;1.45;0.88;;;;;;;;;;5027638;28;58441;-77
2024/03/18 04:50:15;;;;;;;0.55;0.40;;;;;;;;;;5027885;28;59055;-77
2024/03/18 04:52:40;;;;;;;0.60;0.40;;;;;;;;;;5026775;28;59998;-76
2024/03/18 04:55:06;;;;;;;1.00;0.43;;;;;;;;;;5027308;28;58339;-77
2024/03/18 04:57:35;;;;;;;0.60;0.35;;;;;;;;;;5028619;28;59616;-77
2024/03/18 05:00:00;;;;;;;0.60;0.50;;;;;;;;;;5027393;28;58517;-77
2024/03/18 05:02:25;;;;;;;0.55;0.55;;;;;;;;;;5028074;27;60432;-77
2024/03/18 05:04:51;;;;;;;0.63;0.43;;;;;;;;;;5028548;27;58551;-77
2024/03/18 05:07:16;;;;;;;0.75;0.52;;;;;;;;;;5026368;28;58401;-77
2024/03/18 05:09:45;;;;;;;0.40;0.33;;;;;;;;;;5028346;28;59567;-77
2024/03/18 05:12:10;;;;;;;0.45;0.45;;;;;;;;;;5026872;28;59476;-77
2024/03/18 05:14:36;;;;;;;0.82;0.52;;;;;;;;;;5027548;28;58453;-75
2024/03/18 05:17:01;;;;;;;0.20;0.20;;;;;;;;;;5026878;28;60341;-75
2024/03/18 05:19:26;;;;;;;0.50;0.50;;;;;;;;;;5027783;28;58861;-75
2024/03/18 05:21:51;;;;;;;1.87;0.50;;;;;;;;;;5029662;28;58410;-75
2024/03/18 05:24:16;;;;;;;0.37;0.37;;;;;;;;;;5027491;28;58406;-75
2024/03/18 05:26:42;;;;;;;0.47;0.40;;;;;;;;;;5026929;28;58365;-75
2024/03/18 05:29:07;;;;;;;0.37;0.37;;;;;;;;;;5023482;27;59490;-75
2024/03/18 05:31:32;;;;;;;1.90;0.50;;;;;;;;;;5034177;28;58536;-74
2024/03/18 05:34:01;;;;;;;0.50;0.47;;;;;;;;;;5027853;28;58459;-74
2024/03/18 05:36:26;;;;;;;0.70;0.30;;;;;;;;;;5028324;27;58779;-75
2024/03/18 05:38:51;;;;;;;0.40;0.30;;;;;;;;;;5025508;28;59251;-75
2024/03/18 05:41:16;;;;;;;0.50;0.40;;;;;;;;;;5028004;28;58636;-75
2024/03/18 05:43:42;;;;;;;0.30;0.30;;;;;;;;;;5026856;28;59869;-75
2024/03/18 05:46:07;;;;;;;0.20;0.20;;;;;;;;;;5028447;28;58422;-75
2024/03/18 05:48:32;;;;;;;1.00;0.45;;;;;;;;;;5027008;28;59769;-74
2024/03/18 05:50:57;;;;;;;0.40;0.40;;;;;;;;;;5026305;28;58708;-74
2024/03/18 05:53:22;;;;;;;0.43;0.37;;;;;;;;;;5026664;28;58505;-74
2024/03/18 05:55:48;;;;;;;0.28;0.22;;;;;;;;;;5026895;28;58307;-75
2024/03/18 05:58:13;;;;;;;0.32;0.32;;;;;;;;;;5027277;28;58768;-74
2024/03/18 06:00:39;;;;;;;0.50;0.20;;;;;;;;;;5026863;28;58606;-74
2024/03/18 06:03:05;;;;;;;0.55;0.55;;;;;;;;;;5027495;28;58754;-75
2024/03/18 06:05:30;;;;;;;0.85;0.52;;;;;;;;;;5027043;27;59252;-75
2024/03/18 06:07:56;;;;;;;0.50;0.50;;;;;;;;;;5026195;28;59264;-74
2024/03/18 06:10:21;;;;;;;0.60;0.60;;;;;;;;;;5026570;28;58442;-75
2024/03/18 06:12:46;;;;;;;0.75;0.75;;;;;;;;;;5026693;28;58499;-76
2024/03/18 06:15:11;;;;;;;0.70;0.50;;;;;;;;;;5027036;28;59451;-77
2024/03/18 06:17:36;;;;;;;0.47;0.30;;;;;;;;;;5025755;28;59173;-77
2024/03/18 06:20:03;;;;;;;0.50;0.40;;;;;;;;;;5026915;28;58380;-77
2024/03/18 06:22:36;;;;;;;1.63;0.75;;;;;;;;;;5024899;28;58472;-77
2024/03/18 06:27:45;;;;;;;0.63;0.63;;;;;;;;;;5026544;28;58596;-76
2024/03/18 06:30:11;;;;;;;0.50;0.22;;;;;;;;;;5025564;28;58405;-77
2024/03/18 06:32:36;;;;;;;0.88;0.50;;;;;;;;;;5026467;28;58557;-77
2024/03/18 06:35:01;;;;;;;0.35;0.35;;;;;;;;;;5025064;28;58300;-77
2024/03/18 06:37:27;;;;;;;1.08;0.47;;;;;;;;;;5024800;28;58460;-77
2024/03/18 06:39:53;;;;;;;0.50;0.43;;;;;;;;;;5026057;28;58244;-77
2024/03/18 06:42:18;;;;;;;0.73;0.40;;;;;;;;;;5022873;28;58385;-77
2024/03/18 06:44:44;;;;;;;0.38;0.38;;;;;;;;;;5024957;28;58351;-77
2024/03/18 06:47:09;;;;;;;0.73;0.57;;;;;;;;;;5027369;28;58149;-77
2024/03/18 06:49:37;;;;;;;0.93;0.30;;;;;;;;;;5024983;28;59850;-77
2024/03/18 06:52:03;;;;;;;0.50;0.30;;;;;;;;;;5027759;28;58364;-76
2024/03/18 06:54:28;;;;;;;1.60;1.27;;;;;;;;;;5026602;28;58314;-77
2024/03/18 06:56:53;;;;;;;2.75;0.50;;;;;;;;;;5026374;28;58456;-77
2024/03/18 06:59:18;;;;;;;0.77;0.60;;;;;;;;;;5025983;28;58519;-77
2024/03/18 07:01:44;;;;;;;0.40;0.40;;;;;;;;;;5028143;28;60057;-77
2024/03/18 07:04:09;;;;;;;1.10;0.30;;;;;;;;;;5027645;28;58466;-77
2024/03/18 07:06:34;;;;;;;0.93;0.67;;;;;;;;;;5026933;28;58408;-77
2024/03/18 07:08:59;;;;;;;1.23;0.53;;;;;;;;;;5024827;28;59009;-77
2024/03/18 07:11:24;;;;;;;1.07;0.70;;;;;;;;;;5025263;28;58499;-77
2024/03/18 07:13:50;;;;;;;1.27;0.90;;;;;;;;;;5023470;28;58584;-76
2024/03/18 07:16:16;;;;;;;1.50;0.50;;;;;;;;;;5020734;28;59336;-77
2024/03/18 07:18:41;;;;;;;1.33;0.63;;;;;;;;;;5025284;28;58468;-77
2024/03/18 07:21:06;;;;;;;2.78;0.70;;;;;;;;;;5025367;28;58521;-77
2024/03/18 07:23:31;;;;;;;1.87;0.60;;;;;;;;;;5024612;28;58563;-76
2024/03/18 07:25:56;;;;;;;2.95;0.98;;;;;;;;;;5023253;28;58508;-78
2024/03/18 07:28:22;;;;;;;4.63;1.38;;;;;;;;;;5020596;28;58516;-77
2024/03/18 07:30:47;;;;;;;4.10;1.10;;;;;;;;;;5022269;28;58838;-76
2024/03/18 07:33:12;;;;;;;1.95;0.85;;;;;;;;;;5021635;28;58564;-77
2024/03/18 07:35:38;;;;;;;6.15;1.50;;;;;;;;;;5022932;28;58452;-78
2024/03/18 07:38:03;;;;;;;6.50;1.27;;;;;;;;;;5025615;28;58455;-78
2024/03/18 07:40:28;;;;;;;4.07;1.17;;;;;;;;;;5025995;28;58657;-77
2024/03/18 07:42:54;;;;;;;6.17;1.40;;;;;;;;;;5025537;28;58567;-77
2024/03/18 07:45:20;;;;;;;14.33;3.30;;;;;;;;;;5026368;27;58744;-78
2024/03/18 07:47:45;;;;;;;6.28;2.53;;;;;;;;;;5026139;28;58416;-78
2024/03/18 07:50:10;;;;;;;5.28;2.00;;;;;;;;;;5025502;28;58981;-76
2024/03/18 07:52:35;;;;;;;6.70;1.90;;;;;;;;;;5026042;28;58452;-78
2024/03/18 07:55:01;;;;;;;2.83;1.60;;;;;;;;;;5028311;28;58385;-78
2024/03/18 07:57:27;;;;;;;3.17;1.75;;;;;;;;;;5028767;28;58288;-78
2024/03/18 07:59:52;;;;;;;2.58;1.58;;;;;;;;;;5036658;28;59949;-79
2024/03/18 08:02:17;;;;;;;2.30;1.00;;;;;;;;;;5027099;28;58926;-80
2024/03/18 08:04:42;;;;;;;6.63;1.50;;;;;;;;;;5028594;28;58324;-79
2024/03/18 08:07:07;;;;;;;3.07;1.63;;;;;;;;;;5028739;28;60174;-79
2024/03/18 08:09:32;;;;;;;8.35;2.25;;;;;;;;;;5028616;28;58382;-79
2024/03/18 08:11:58;;;;;;;2.77;1.40;;;;;;;;;;5028407;28;58432;-79
2024/03/18 08:14:23;;;;;;;4.28;0.90;;;;;;;;;;5028762;28;58609;-78
2024/03/18 08:16:48;;;;;;;2.87;1.13;;;;;;;;;;5027994;28;58408;-79
2024/03/18 08:19:13;;;;;;;3.67;1.37;;;;;;;;;;5026612;28;59153;-79
2024/03/18 08:21:38;;;;;;;4.10;2.37;;;;;;;;;;5024806;28;58873;-78
2024/03/18 08:24:04;;;;;;;5.53;1.83;;;;;;;;;;5027043;28;58538;-75
2024/03/18 08:26:32;;;;;;;8.27;2.25;;;;;;;;;;5026598;28;58451;-72
2024/03/18 08:28:57;;;;;;;;;;;;;;;;;;5024792;28;60306;-72
2024/03/18 08:31:22;;;;;;;6.38;1.77;;;;;;;;;;5024408;28;58399;-72
2024/03/18 08:33:47;;;;;;;2.20;1.27;;;;;;;;;;5028707;28;59575;-71
2024/03/18 08:36:12;;;;;;;6.43;2.20;;;;;;;;;;5027456;28;58933;-72
2024/03/18 08:38:38;;;;;;;5.23;1.83;;;;;;;;;;5027278;28;59194;-72
2024/03/18 08:41:03;;;;;;;3.35;2.03;;;;;;;;;;5026716;28;59672;-71
2024/03/18 08:43:28;;;;;;;3.77;1.67;;;;;;;;;;5028278;28;58325;-75
2024/03/18 08:45:54;;;;;;;4.40;1.73;;;;;;;;;;5028760;28;59342;-75
2024/03/18 08:48:20;;;;;;;6.68;1.52;;;;;;;;;;5027444;28;58345;-75
2024/03/18 08:50:45;;;;;;;4.32;1.58;;;;;;;;;;5028269;27;58415;-75
2024/03/18 08:53:14;;;;;;;3.97;1.60;;;;;;;;;;5028014;28;58765;-74
2024/03/18 08:55:39;;;;;;;6.95;2.10;;;;;;;;;;5026769;28;64760;-75
2024/03/18 08:58:04;;;;;;;4.93;1.60;;;;;;;;;;5028548;28;60963;-74
2024/03/18 09:00:29;;;;;;;7.57;2.50;;;;;;;;;;5027099;28;59830;-75
2024/03/18 09:02:54;;;;;;;6.25;1.77;;;;;;;;;;5028143;28;58459;-75
2024/03/18 09:05:20;;;;;;;1.65;1.55;;;;;;;;;;5028739;28;59205;-74
2024/03/18 09:07:45;;;;;;;3.72;1.63;;;;;;;;;;5026336;28;58957;-75
2024/03/18 09:10:12;;;;;;;4.32;1.33;;;;;;;;;;5029159;28;58347;-75
2024/03/18 09:12:38;;;;;;;2.72;1.38;;;;;;;;;;5026915;28;59516;-76
2024/03/18 09:15:04;;;;;;;3.08;1.67;;;;;;;;;;5026680;28;58776;-74
2024/03/18 09:17:30;;;;;;;3.63;1.33;;;;;;;;;;5029233;28;58338;-75
2024/03/18 09:19:55;;;;;;;2.70;1.42;;;;;;;;;;5027529;28;59585;-74
2024/03/18 09:22:20;;;;;;;3.58;1.17;;;;;;;;;;5028588;28;58492;-74
2024/03/18 09:24:45;;;;;;;5.97;2.80;;;;;;;;;;5028704;28;59612;-75
2024/03/18 09:27:11;;;;;;;2.35;1.65;;;;;;;;;;5027313;28;58578;-75
2024/03/18 09:29:37;;;;;;;0.82;0.75;;;;;;;;;;5026502;28;58319;-75
2024/03/18 09:32:02;;;;;;;2.73;1.80;;;;;;;;;;5027210;28;59461;-75
2024/03/18 09:34:27;;;;;;;1.75;1.13;;;;;;;;;;5027776;28;59831;-74
2024/03/18 09:36:52;;;;;;;3.20;1.20;;;;;;;;;;5027674;28;58192;-75
2024/03/18 09:39:18;;;;;;;3.63;1.37;;;;;;;;;;5026460;28;59177;-75
2024/03/18 09:41:45;;;;;;;3.55;1.20;;;;;;;;;;5026016;28;58511;-75
2024/03/18 09:44:12;;;;;;;3.87;1.47;;;;;;;;;;5027746;28;58522;-75
2024/03/18 09:46:37;;;;;;;4.32;1.13;;;;;;;;;;5025877;27;60000;-75
2024/03/18 09:49:02;;;;;;;1.80;1.20;;;;;;;;;;5027936;28;58524;-75
2024/03/18 09:51:29;;;;;;;1.80;1.27;;;;;;;;;;5027069;28;59388;-75
2024/03/18 09:53:55;;;;;;;2.05;1.23;;;;;;;;;;5026267;28;59398;-76
2024/03/18 09:56:20;;;;;;;2.50;1.42;;;;;;;;;;5026969;28;58528;-74
2024/03/18 09:58:45;;;;;;;4.67;0.77;;;;;;;;;;5026585;27;59432;-75
2024/03/18 10:01:12;;;;;;;1.40;0.95;;;;;;;;;;5026083;28;58996;-75
2024/03/18 10:03:41;;;;;;;1.60;1.35;;;;;;;;;;5023773;28;60074;-74
2024/03/18 10:06:06;;;;;;;2.45;1.70;;;;;;;;;;5025108;28;60071;-74
2024/03/18 10:08:32;;;;;;;1.87;1.70;;;;;;;;;;5027366;28;58441;-75
2024/03/18 10:10:57;;;;;;;1.77;1.20;;;;;;;;;;5026827;28;59525;-75
2024/03/18 10:13:24;;;;;;;1.33;1.17;;;;;;;;;;5026656;28;58372;-75
2024/03/18 10:15:52;;;;;;;2.47;1.50;;;;;;;;;;5025905;28;58471;-75
2024/03/18 10:18:17;;;;;;;1.27;0.90;;;;;;;;;;5023940;28;59351;-76
2024/03/18 10:20:42;;;;;;;0.65;0.60;;;;;;;;;;5024043;28;59043;-75
2024/03/18 10:23:11;;;;;;;1.05;0.85;;;;;;;;;;5026239;28;58383;-77
2024/03/18 10:25:37;;;;;;;1.30;0.93;;;;;;;;;;5025075;28;58103;-75
2024/03/18 10:28:06;;;;;;;2.10;0.88;;;;;;;;;;5025580;28;58488;-74
2024/03/18 10:30:32;;;;;;;1.10;0.80;;;;;;;;;;5026591;28;61156;-73
2024/03/18 10:32:58;;;;;;;2.60;1.38;;;;;;;;;;5027683;28;58857;-74
2024/03/18 10:35:27;;;;;;;1.38;0.90;;;;;;;;;;5034787;28;58306;-77
2024/03/18 10:37:53;;;;;;;3.10;1.40;;;;;;;;;;5010643;28;59671;-77
2024/03/18 10:40:29;;;;;;;1.77;1.17;;;;;;;;;;5025964;28;58918;-76
2024/03/18 10:42:58;;;;;;;5.85;1.42;;;;;;;;;;5029242;28;58428;-75
2024/03/18 10:45:26;;;;;;;;;;;;;;;;;;5027413;28;59832;-74
2024/03/18 10:47:51;;;;;;;;;;;;;;;;;;5028405;28;58506;-75
2024/03/18 10:50:16;;;;;;;5.90;1.67;;;;;;;;;;5027471;28;58521;-75
2024/03/18 10:52:43;;;;;;;3.58;1.85;;;;;;;;;;5022819;28;58925;-71
2024/03/18 10:55:14;;;;;;;4.35;1.60;;;;;;;;;;5025926;28;58355;-75
2024/03/18 10:57:39;;;;;;;3.67;1.42;;;;;;;;;;5025358;28;58339;-75
2024/03/18 11:00:11;;;;;;;3.90;2.10;;;;;;;;;;5025117;28;58887;-74
2024/03/18 11:02:36;;;;;;;1.80;1.13;;;;;;;;;;5024773;28;58503;-75
2024/03/18 11:05:01;;;;;;;2.13;1.37;;;;;;;;;;5025605;28;59519;-71
2024/03/18 11:07:32;;;;;;;2.87;1.10;;;;;;;;;;5024126;28;58459;-71
2024/03/18 11:10:02;;;;;;;4.65;1.83;;;;;;;;;;5026389;28;59465;-71
2024/03/18 11:12:31;;;;;;;1.55;1.45;;;;;;;;;;5024270;27;59225;-72
2024/03/18 11:15:05;;;;;;;2.17;1.15;;;;;;;;;;5024917;28;58386;-71
2024/03/18 11:17:30;;;;;;;1.35;0.90;;;;;;;;;;5026216;28;59161;-71
2024/03/18 11:19:59;;;;;;;2.37;1.97;;;;;;;;;;5024266;28;58518;-71
2024/03/18 11:22:24;;;;;;;1.65;0.80;;;;;;;;;;5025932;28;59211;-71
2024/03/18 11:24:53;;;;;;;4.97;1.10;;;;;;;;;;5024588;28;59969;-71
2024/03/18 11:27:19;;;;;;;1.90;1.00;;;;;;;;;;5025746;28;58917;-71
2024/03/18 11:29:49;;;;;;;1.77;1.02;;;;;;;;;;5024314;28;59617;-71
2024/03/18 11:32:14;;;;;;;3.03;1.50;;;;;;;;;;5025402;28;58854;-71
2024/03/18 11:34:41;;;;;;;3.83;1.20;;;;;;;;;;5024735;28;58478;-71
2024/03/18 11:37:07;;;;;;;2.67;1.38;;;;;;;;;;5026594;28;59400;-71
2024/03/18 11:39:33;;;;;;;1.00;0.98;;;;;;;;;;5025481;28;59143;-71
2024/03/18 11:41:58;;;;;;;2.92;1.33;;;;;;;;;;5024973;28;58393;-71
2024/03/18 11:44:23;;;;;;;1.35;1.17;;;;;;;;;;5024810;28;59123;-72
2024/03/18 11:46:49;;;;;;;2.10;0.77;;;;;;;;;;5025168;28;58813;-71
2024/03/18 11:49:21;;;;;;;1.95;1.10;;;;;;;;;;5027068;28;58367;-72
2024/03/18 11:51:47;;;;;;;1.13;1.02;;;;;;;;;;5025278;28;63539;-71
2024/03/18 11:54:13;;;;;;;1.88;1.45;;;;;;;;;;5024448;28;58400;-71
2024/03/18 11:56:38;;;;;;;2.33;1.88;;;;;;;;;;5025335;28;58674;-72
2024/03/18 11:59:04;;;;;;;1.77;0.97;;;;;;;;;;5024255;28;58568;-71
2024/03/18 12:01:30;;;;;;;1.33;0.80;;;;;;;;;;5025270;28;58085;-71
2024/03/18 12:03:58;;;;;;;1.13;0.85;;;;;;;;;;5025983;28;59703;-72
2024/03/18 12:06:23;;;;;;;2.08;0.95;;;;;;;;;;5023517;28;58479;-71
2024/03/18 12:08:49;;;;;;;1.57;0.77;;;;;;;;;;5025246;28;58659;-71
2024/03/18 12:11:14;;;;;;;1.67;1.02;;;;;;;;;;5024937;28;59485;-71
2024/03/18 12:13:39;;;;;;;2.30;1.00;;;;;;;;;;5025611;28;58360;-71
2024/03/18 12:16:05;;;;;;;1.40;0.80;;;;;;;;;;5026040;28;58296;-72
2024/03/18 12:18:31;;;;;;;2.28;1.52;;;;;;;;;;5022860;28;58378;-72
2024/03/18 12:20:56;;;;;;;0.85;0.80;;;;;;;;;;5025338;28;58523;-71
2024/03/18 12:28:56;;;;;;;1.67;1.08;;;;;;;;;;5021956;28;58440;-73
2024/03/18 12:31:23;;;;;;;1.47;0.77;;;;;;;;;;5025418;28;58381;-74
2024/03/18 12:33:48;;;;;;;1.63;0.90;;;;;;;;;;5025325;28;59916;-74
2024/03/18 12:36:14;;;;;;;0.90;0.87;;;;;;;;;;5025441;28;58539;-74
2024/03/18 12:38:40;;;;;;;1.95;1.10;;;;;;;;;;5023516;28;58958;-74
2024/03/18 12:41:06;;;;;;;2.35;1.15;;;;;;;;;;5025592;28;58139;-73
2024/03/18 12:43:31;;;;;;;3.78;2.10;;;;;;;;;;5027452;28;60406;-74
2024/03/18 12:45:57;;;;;;;5.03;2.17;;;;;;;;;;5027754;28;58661;-72
2024/03/18 12:48:22;;;;;;;12.98;2.75;;;;;;;;;;5028050;28;58564;-70
2024/03/18 12:50:47;;;;;;;8.70;1.83;;;;;;;;;;5027797;28;58465;-71
2024/03/18 12:53:13;;;;;;;4.50;1.90;;;;;;;;;;5028325;28;58536;-70
2024/03/18 12:55:38;;;;;;;3.40;1.97;;;;;;;;;;5027768;28;59289;-71
2024/03/18 12:58:05;;;;;;;3.00;1.80;;;;;;;;;;5024702;28;58894;-71
2024/03/18 13:00:30;;;;;;;5.30;1.73;;;;;;;;;;5029093;28;57914;-71
2024/03/18 13:02:55;;;;;;;5.20;1.40;;;;;;;;;;5027692;28;58544;-72
2024/03/18 13:05:21;;;;;;;3.90;1.77;;;;;;;;;;5027415;28;59025;-72
2024/03/18 13:07:47;;;;;;;5.47;1.55;;;;;;;;;;5025379;28;58476;-73
2024/03/18 13:10:12;;;;;;;6.78;1.98;;;;;;;;;;5026278;28;59537;-72
2024/03/18 13:12:37;;;;;;;4.57;1.50;;;;;;;;;;5026845;28;59227;-72
2024/03/18 13:15:05;;;;;;;7.80;2.08;;;;;;;;;;5027693;28;58484;-74
2024/03/18 13:17:31;;;;;;;8.30;2.50;;;;;;;;;;5026094;28;58538;-72
2024/03/18 13:19:57;;;;;;;5.38;2.22;;;;;;;;;;5023979;27;58404;-72
2024/03/18 13:22:22;;;;;;;7.32;1.80;;;;;;;;;;5025684;28;58661;-72
2024/03/18 13:24:47;;;;;;;4.40;1.92;;;;;;;;;;5027371;28;58676;-74
2024/03/18 13:27:14;;;;;;;3.88;1.95;;;;;;;;;;5027595;28;58171;-74
2024/03/18 13:29:39;;;;;;;6.15;1.95;;;;;;;;;;5027039;28;59658;-74
2024/03/18 13:32:07;;;;;;;3.90;1.67;;;;;;;;;;5027206;28;59033;-74
2024/03/18 13:34:32;;;;;;;7.43;2.15;;;;;;;;;;5027482;28;58388;-74
2024/03/18 13:36:58;;;;;;;4.60;1.55;;;;;;;;;;5028082;28;59232;-75
2024/03/18 13:39:27;;;;;;;2.83;1.48;;;;;;;;;;5027941;28;59366;-74
2024/03/18 13:41:53;;;;;;;4.60;1.50;;;;;;;;;;5027240;28;59571;-74
2024/03/18 13:44:18;;;;;;;6.10;2.75;;;;;;;;;;5027135;27;59710;-75
2024/03/18 13:46:43;;;;;;;2.92;1.48;;;;;;;;;;5027949;28;58553;-74
2024/03/18 13:49:12;;;;;;;2.30;1.40;;;;;;;;;;5028240;28;59190;-74
2024/03/18 13:51:37;;;;;;;4.00;1.52;;;;;;;;;;5026756;28;59417;-74
2024/03/18 13:54:03;;;;;;;3.67;1.20;;;;;;;;;;5027524;28;58579;-74
2024/03/18 13:56:28;;;;;;;2.70;1.57;;;;;;;;;;5027493;28;59432;-74
2024/03/18 13:58:53;;;;;;;3.78;1.83;;;;;;;;;;5026140;28;59239;-74
2024/03/18 14:01:18;;;;;;;6.15;1.38;;;;;;;;;;5028026;28;59721;-75
2024/03/18 14:03:44;;;;;;;6.73;2.10;;;;;;;;;;5025927;28;58980;-75
2024/03/18 14:06:09;;;;;;;1.77;1.00;;;;;;;;;;5023142;28;58309;-73
2024/03/18 14:08:35;;;;;;;5.00;1.80;;;;;;;;;;5026267;28;59076;-74
2024/03/18 14:11:01;;;;;;;2.67;1.20;;;;;;;;;;5026261;28;58849;-74
2024/03/18 14:13:26;;;;;;;3.33;1.42;;;;;;;;;;5025952;28;58345;-73
2024/03/18 14:15:51;;;;;;;5.28;2.00;;;;;;;;;;5026997;28;59411;-74
2024/03/18 14:18:17;;;;;;;8.17;1.53;;;;;;;;;;5025938;28;58555;-74
2024/03/18 14:20:42;;;;;;;3.80;1.45;;;;;;;;;;5026208;28;58299;-75
2024/03/18 14:23:08;;;;;;;1.77;1.48;;;;;;;;;;5026706;28;58262;-75
2024/03/18 14:25:33;;;;;;;3.80;1.00;;;;;;;;;;5026200;28;58425;-74
2024/03/18 14:28:04;;;;;;;4.03;1.23;;;;;;;;;;5026762;28;59325;-76
2024/03/18 14:30:30;;;;;;;3.17;2.30;;;;;;;;;;5024387;28;59124;-73
2024/03/18 14:32:55;;;;;;;1.70;1.10;;;;;;;;;;5026795;28;58253;-73
2024/03/18 14:35:20;;;;;;;3.83;1.63;;;;;;;;;;5026313;28;59106;-73
2024/03/18 14:37:45;;;;;;;2.13;1.90;;;;;;;;;;5026380;28;58651;-74
2024/03/18 14:40:13;;;;;;;1.77;1.00;;;;;;;;;;5026244;28;58269;-73
2024/03/18 14:42:38;;;;;;;3.67;1.55;;;;;;;;;;5027016;28;58656;-73
2024/03/18 14:45:03;;;;;;;3.80;1.88;;;;;;;;;;5025954;28;58425;-75